sensor_id;sensor_type;location;lat;lon;timestamp;P1;durP1;ratioP1;P2;durP2;ratioP2
8556;SDS011;4316;53.840;10.762;2023-02-28T00:00:24;6.67;;;3.17;;
8556;SDS011;4316;53.840;10.762;2023-02-28T00:02:50;7.80;;;3.03;;
8556;SDS011;4316;53.840;10.762;2023-02-28T00:05:17;6.03;;;3.07;;
8556;SDS011;4316;53.840;10.762;2023-02-28T00:07:44;3.57;;;3.07;;
8556;SDS011;4316;53.840;10.762;2023-02-28T00:10:12;4.87;;;2.83;;
8556;SDS011;4316;53.840;10.762;2023-02-28T00:12:39;5.33;;;3.00;;
8556;SDS011;4316;53.840;10.762;2023-02-28T00:15:07;4.77;;;3.10;;
8556;SDS011;4316;53.840;10.762;2023-02-28T00:17:35;4.17;;;3.10;;
8556;SDS011;4316;53.840;10.762;2023-02-28T00:20:01;7.73;;;3.17;;
8556;SDS011;4316;53.840;10.762;2023-02-28T00:22:29;6.93;;;3.27;;
8556;SDS011;4316;53.840;10.762;2023-02-28T00:24:55;4.63;;;3.37;;
8556;SDS011;4316;53.840;10.762;2023-02-28T00:27:21;7.30;;;3.17;;
8556;SDS011;4316;53.840;10.762;2023-02-28T00:29:47;5.00;;;3.60;;
8556;SDS011;4316;53.840;10.762;2023-02-28T00:32:13;7.00;;;3.33;;
8556;SDS011;4316;53.840;10.762;2023-02-28T00:34:39;5.73;;;3.60;;
8556;SDS011;4316;53.840;10.762;2023-02-28T00:37:05;5.37;;;3.00;;
8556;SDS011;4316;53.840;10.762;2023-02-28T00:39:36;3.87;;;2.87;;
8556;SDS011;4316;53.840;10.762;2023-02-28T00:42:03;3.33;;;3.00;;
8556;SDS011;4316;53.840;10.762;2023-02-28T00:44:29;6.80;;;3.23;;
8556;SDS011;4316;53.840;10.762;2023-02-28T00:46:55;6.17;;;3.77;;
8556;SDS011;4316;53.840;10.762;2023-02-28T00:49:23;4.20;;;2.60;;
8556;SDS011;4316;53.840;10.762;2023-02-28T00:51:50;4.50;;;3.60;;
8556;SDS011;4316;53.840;10.762;2023-02-28T00:54:18;6.20;;;3.60;;
8556;SDS011;4316;53.840;10.762;2023-02-28T00:56:46;7.40;;;3.60;;
8556;SDS011;4316;53.840;10.762;2023-02-28T00:59:13;7.07;;;3.40;;
8556;SDS011;4316;53.840;10.762;2023-02-28T01:01:39;8.40;;;3.57;;
8556;SDS011;4316;53.840;10.762;2023-02-28T01:04:08;5.00;;;3.30;;
8556;SDS011;4316;53.840;10.762;2023-02-28T01:06:34;5.53;;;3.10;;
8556;SDS011;4316;53.840;10.762;2023-02-28T01:09:01;7.63;;;3.40;;
8556;SDS011;4316;53.840;10.762;2023-02-28T01:11:28;5.53;;;3.43;;
8556;SDS011;4316;53.840;10.762;2023-02-28T01:13:53;3.57;;;2.90;;
8556;SDS011;4316;53.840;10.762;2023-02-28T01:16:19;4.47;;;2.97;;
8556;SDS011;4316;53.840;10.762;2023-02-28T01:18:45;5.67;;;3.27;;
8556;SDS011;4316;53.840;10.762;2023-02-28T01:21:12;8.20;;;3.50;;
8556;SDS011;4316;53.840;10.762;2023-02-28T01:23:40;4.13;;;2.80;;
8556;SDS011;4316;53.840;10.762;2023-02-28T01:26:10;5.27;;;3.00;;
8556;SDS011;4316;53.840;10.762;2023-02-28T01:28:39;5.33;;;2.63;;
8556;SDS011;4316;53.840;10.762;2023-02-28T01:31:05;8.27;;;3.03;;
8556;SDS011;4316;53.840;10.762;2023-02-28T01:33:32;5.60;;;3.27;;
8556;SDS011;4316;53.840;10.762;2023-02-28T01:36:05;4.37;;;2.70;;
8556;SDS011;4316;53.840;10.762;2023-02-28T01:38:36;4.23;;;3.40;;
8556;SDS011;4316;53.840;10.762;2023-02-28T01:41:02;5.57;;;3.70;;
8556;SDS011;4316;53.840;10.762;2023-02-28T01:43:55;5.17;;;3.53;;
8556;SDS011;4316;53.840;10.762;2023-02-28T01:46:14;5.37;;;3.97;;
8556;SDS011;4316;53.840;10.762;2023-02-28T01:48:42;4.67;;;3.07;;
8556;SDS011;4316;53.840;10.762;2023-02-28T01:51:13;4.33;;;3.20;;
8556;SDS011;4316;53.840;10.762;2023-02-28T01:53:46;10.23;;;4.10;;
8556;SDS011;4316;53.840;10.762;2023-02-28T01:56:17;5.43;;;3.73;;
8556;SDS011;4316;53.840;10.762;2023-02-28T01:58:48;7.87;;;3.80;;
8556;SDS011;4316;53.840;10.762;2023-02-28T02:01:17;5.70;;;3.80;;
8556;SDS011;4316;53.840;10.762;2023-02-28T02:03:48;5.03;;;3.77;;
8556;SDS011;4316;53.840;10.762;2023-02-28T02:06:30;8.77;;;3.97;;
8556;SDS011;4316;53.840;10.762;2023-02-28T02:09:02;7.03;;;4.33;;
8556;SDS011;4316;53.840;10.762;2023-02-28T02:11:28;4.83;;;3.73;;
8556;SDS011;4316;53.840;10.762;2023-02-28T02:39:50;8.53;;;4.37;;
8556;SDS011;4316;53.840;10.762;2023-02-28T02:42:28;7.27;;;3.90;;
8556;SDS011;4316;53.840;10.762;2023-02-28T02:45:06;5.97;;;3.50;;
8556;SDS011;4316;53.840;10.762;2023-02-28T02:48:00;6.63;;;3.33;;
8556;SDS011;4316;53.840;10.762;2023-02-28T02:50:30;6.43;;;3.70;;
8556;SDS011;4316;53.840;10.762;2023-02-28T02:53:02;5.77;;;3.30;;
8556;SDS011;4316;53.840;10.762;2023-02-28T02:55:31;8.50;;;3.00;;
8556;SDS011;4316;53.840;10.762;2023-02-28T02:58:04;6.90;;;3.43;;
8556;SDS011;4316;53.840;10.762;2023-02-28T03:00:35;5.33;;;3.20;;
8556;SDS011;4316;53.840;10.762;2023-02-28T03:03:08;6.37;;;2.87;;
8556;SDS011;4316;53.840;10.762;2023-02-28T03:05:41;5.00;;;3.27;;
8556;SDS011;4316;53.840;10.762;2023-02-28T03:08:12;6.20;;;3.20;;
8556;SDS011;4316;53.840;10.762;2023-02-28T03:10:39;4.20;;;3.23;;
8556;SDS011;4316;53.840;10.762;2023-02-28T03:15:41;4.70;;;3.20;;
8556;SDS011;4316;53.840;10.762;2023-02-28T03:18:16;4.87;;;2.90;;
8556;SDS011;4316;53.840;10.762;2023-02-28T03:21:14;5.63;;;3.43;;
8556;SDS011;4316;53.840;10.762;2023-02-28T03:26:36;3.60;;;3.10;;
8556;SDS011;4316;53.840;10.762;2023-02-28T03:31:54;7.90;;;3.70;;
8556;SDS011;4316;53.840;10.762;2023-02-28T03:34:29;7.20;;;3.90;;
8556;SDS011;4316;53.840;10.762;2023-02-28T03:37:01;5.47;;;2.83;;
8556;SDS011;4316;53.840;10.762;2023-02-28T03:39:40;7.90;;;3.40;;
8556;SDS011;4316;53.840;10.762;2023-02-28T03:42:14;9.03;;;3.87;;
8556;SDS011;4316;53.840;10.762;2023-02-28T03:44:46;5.83;;;3.50;;
8556;SDS011;4316;53.840;10.762;2023-02-28T03:52:50;3.40;;;2.90;;
8556;SDS011;4316;53.840;10.762;2023-02-28T03:55:26;5.23;;;3.37;;
8556;SDS011;4316;53.840;10.762;2023-02-28T03:58:01;4.57;;;3.17;;
8556;SDS011;4316;53.840;10.762;2023-02-28T04:00:40;9.20;;;3.77;;
8556;SDS011;4316;53.840;10.762;2023-02-28T04:03:11;11.07;;;5.07;;
8556;SDS011;4316;53.840;10.762;2023-02-28T04:05:53;9.73;;;7.10;;
8556;SDS011;4316;53.840;10.762;2023-02-28T04:08:20;5.57;;;3.70;;
8556;SDS011;4316;53.840;10.762;2023-02-28T04:13:54;9.70;;;5.10;;
8556;SDS011;4316;53.840;10.762;2023-02-28T04:16:19;5.20;;;4.43;;
8556;SDS011;4316;53.840;10.762;2023-02-28T04:18:45;12.20;;;6.07;;
8556;SDS011;4316;53.840;10.762;2023-02-28T04:21:11;9.33;;;5.90;;
8556;SDS011;4316;53.840;10.762;2023-02-28T04:23:40;7.67;;;5.67;;
8556;SDS011;4316;53.840;10.762;2023-02-28T04:26:06;8.83;;;5.27;;
8556;SDS011;4316;53.840;10.762;2023-02-28T04:28:32;5.47;;;3.87;;
8556;SDS011;4316;53.840;10.762;2023-02-28T04:31:00;4.47;;;3.07;;
8556;SDS011;4316;53.840;10.762;2023-02-28T04:33:27;3.43;;;2.77;;
8556;SDS011;4316;53.840;10.762;2023-02-28T04:36:06;3.30;;;2.70;;
8556;SDS011;4316;53.840;10.762;2023-02-28T04:38:37;6.53;;;3.23;;
8556;SDS011;4316;53.840;10.762;2023-02-28T04:41:04;4.57;;;3.27;;
8556;SDS011;4316;53.840;10.762;2023-02-28T04:43:31;4.53;;;3.27;;
8556;SDS011;4316;53.840;10.762;2023-02-28T04:45:57;6.20;;;3.23;;
8556;SDS011;4316;53.840;10.762;2023-02-28T04:48:29;6.70;;;2.97;;
8556;SDS011;4316;53.840;10.762;2023-02-28T04:51:00;3.13;;;2.83;;
8556;SDS011;4316;53.840;10.762;2023-02-28T04:53:39;3.03;;;2.70;;
8556;SDS011;4316;53.840;10.762;2023-02-28T04:56:06;5.43;;;2.67;;
8556;SDS011;4316;53.840;10.762;2023-02-28T04:58:33;3.83;;;3.00;;
8556;SDS011;4316;53.840;10.762;2023-02-28T05:01:33;5.90;;;2.87;;
8556;SDS011;4316;53.840;10.762;2023-02-28T05:03:52;3.83;;;2.67;;
8556;SDS011;4316;53.840;10.762;2023-02-28T05:06:20;5.10;;;2.80;;
8556;SDS011;4316;53.840;10.762;2023-02-28T05:08:48;3.57;;;2.57;;
8556;SDS011;4316;53.840;10.762;2023-02-28T05:11:16;2.67;;;2.47;;
8556;SDS011;4316;53.840;10.762;2023-02-28T05:13:46;16.00;;;3.17;;
8556;SDS011;4316;53.840;10.762;2023-02-28T05:16:13;3.43;;;2.57;;
8556;SDS011;4316;53.840;10.762;2023-02-28T05:18:39;7.13;;;3.57;;
8556;SDS011;4316;53.840;10.762;2023-02-28T05:21:05;4.93;;;2.70;;
8556;SDS011;4316;53.840;10.762;2023-02-28T05:23:31;4.33;;;2.90;;
8556;SDS011;4316;53.840;10.762;2023-02-28T05:25:58;2.80;;;2.30;;
8556;SDS011;4316;53.840;10.762;2023-02-28T05:28:24;3.13;;;2.37;;
8556;SDS011;4316;53.840;10.762;2023-02-28T05:30:50;3.53;;;2.63;;
8556;SDS011;4316;53.840;10.762;2023-02-28T05:33:15;3.53;;;2.90;;
8556;SDS011;4316;53.840;10.762;2023-02-28T05:35:41;3.53;;;3.07;;
8556;SDS011;4316;53.840;10.762;2023-02-28T05:38:10;4.23;;;2.60;;
8556;SDS011;4316;53.840;10.762;2023-02-28T05:40:37;2.97;;;2.67;;
8556;SDS011;4316;53.840;10.762;2023-02-28T05:43:04;4.10;;;2.90;;
8556;SDS011;4316;53.840;10.762;2023-02-28T05:45:30;4.20;;;3.13;;
8556;SDS011;4316;53.840;10.762;2023-02-28T05:47:56;6.17;;;2.80;;
8556;SDS011;4316;53.840;10.762;2023-02-28T05:50:21;3.37;;;2.60;;
8556;SDS011;4316;53.840;10.762;2023-02-28T05:52:51;5.33;;;2.93;;
8556;SDS011;4316;53.840;10.762;2023-02-28T05:55:17;6.40;;;2.63;;
8556;SDS011;4316;53.840;10.762;2023-02-28T05:57:43;3.83;;;2.60;;
8556;SDS011;4316;53.840;10.762;2023-02-28T06:00:09;3.97;;;3.00;;
8556;SDS011;4316;53.840;10.762;2023-02-28T06:02:39;6.33;;;2.90;;
8556;SDS011;4316;53.840;10.762;2023-02-28T06:05:06;3.47;;;2.60;;
8556;SDS011;4316;53.840;10.762;2023-02-28T06:07:41;3.60;;;2.80;;
8556;SDS011;4316;53.840;10.762;2023-02-28T06:10:07;6.67;;;3.70;;
8556;SDS011;4316;53.840;10.762;2023-02-28T06:12:33;4.57;;;2.97;;
8556;SDS011;4316;53.840;10.762;2023-02-28T06:14:59;5.93;;;3.17;;
8556;SDS011;4316;53.840;10.762;2023-02-28T06:17:24;2.90;;;2.70;;
8556;SDS011;4316;53.840;10.762;2023-02-28T06:19:50;3.83;;;2.63;;
8556;SDS011;4316;53.840;10.762;2023-02-28T06:22:16;3.43;;;2.40;;
8556;SDS011;4316;53.840;10.762;2023-02-28T06:24:42;2.60;;;2.40;;
8556;SDS011;4316;53.840;10.762;2023-02-28T06:27:07;2.93;;;2.70;;
8556;SDS011;4316;53.840;10.762;2023-02-28T06:29:34;3.70;;;2.93;;
8556;SDS011;4316;53.840;10.762;2023-02-28T06:32:00;5.13;;;2.63;;
8556;SDS011;4316;53.840;10.762;2023-02-28T06:34:26;2.80;;;2.60;;
8556;SDS011;4316;53.840;10.762;2023-02-28T06:36:52;5.33;;;2.83;;
8556;SDS011;4316;53.840;10.762;2023-02-28T06:39:18;3.40;;;2.60;;
8556;SDS011;4316;53.840;10.762;2023-02-28T06:41:44;4.57;;;2.93;;
8556;SDS011;4316;53.840;10.762;2023-02-28T06:44:14;5.57;;;3.20;;
8556;SDS011;4316;53.840;10.762;2023-02-28T06:46:42;5.63;;;3.17;;
8556;SDS011;4316;53.840;10.762;2023-02-28T06:49:09;5.03;;;3.00;;
8556;SDS011;4316;53.840;10.762;2023-02-28T06:51:36;4.20;;;3.10;;
8556;SDS011;4316;53.840;10.762;2023-02-28T06:54:04;12.43;;;7.23;;
8556;SDS011;4316;53.840;10.762;2023-02-28T06:56:30;16.27;;;8.33;;
8556;SDS011;4316;53.840;10.762;2023-02-28T06:58:56;5.23;;;4.23;;
8556;SDS011;4316;53.840;10.762;2023-02-28T07:01:22;5.30;;;3.70;;
8556;SDS011;4316;53.840;10.762;2023-02-28T07:03:49;5.90;;;3.83;;
8556;SDS011;4316;53.840;10.762;2023-02-28T07:06:21;4.47;;;3.07;;
8556;SDS011;4316;53.840;10.762;2023-02-28T07:08:50;6.07;;;3.60;;
8556;SDS011;4316;53.840;10.762;2023-02-28T07:11:20;4.07;;;3.07;;
8556;SDS011;4316;53.840;10.762;2023-02-28T07:13:48;4.77;;;3.83;;
8556;SDS011;4316;53.840;10.762;2023-02-28T07:16:15;6.43;;;3.63;;
8556;SDS011;4316;53.840;10.762;2023-02-28T07:18:41;3.20;;;2.53;;
8556;SDS011;4316;53.840;10.762;2023-02-28T07:21:08;5.00;;;2.80;;
8556;SDS011;4316;53.840;10.762;2023-02-28T07:23:35;4.93;;;3.33;;
8556;SDS011;4316;53.840;10.762;2023-02-28T07:26:03;4.83;;;2.80;;
8556;SDS011;4316;53.840;10.762;2023-02-28T07:28:29;5.87;;;3.53;;
8556;SDS011;4316;53.840;10.762;2023-02-28T07:30:55;4.37;;;3.20;;
8556;SDS011;4316;53.840;10.762;2023-02-28T07:33:21;10.37;;;4.90;;
8556;SDS011;4316;53.840;10.762;2023-02-28T07:35:48;6.57;;;4.80;;
8556;SDS011;4316;53.840;10.762;2023-02-28T07:38:15;5.63;;;4.07;;
8556;SDS011;4316;53.840;10.762;2023-02-28T07:40:41;7.33;;;4.00;;
8556;SDS011;4316;53.840;10.762;2023-02-28T07:43:06;5.37;;;3.60;;
8556;SDS011;4316;53.840;10.762;2023-02-28T07:45:32;6.23;;;3.50;;
8556;SDS011;4316;53.840;10.762;2023-02-28T07:47:59;12.10;;;4.30;;
8556;SDS011;4316;53.840;10.762;2023-02-28T07:50:25;5.63;;;3.27;;
8556;SDS011;4316;53.840;10.762;2023-02-28T07:52:54;4.97;;;2.97;;
8556;SDS011;4316;53.840;10.762;2023-02-28T07:55:20;7.23;;;3.90;;
8556;SDS011;4316;53.840;10.762;2023-02-28T07:57:45;7.13;;;2.97;;
8556;SDS011;4316;53.840;10.762;2023-02-28T08:00:11;4.63;;;3.60;;
8556;SDS011;4316;53.840;10.762;2023-02-28T08:02:39;7.43;;;3.70;;
8556;SDS011;4316;53.840;10.762;2023-02-28T08:05:05;7.07;;;3.37;;
8556;SDS011;4316;53.840;10.762;2023-02-28T08:07:32;7.73;;;3.43;;
8556;SDS011;4316;53.840;10.762;2023-02-28T08:09:58;7.53;;;3.20;;
8556;SDS011;4316;53.840;10.762;2023-02-28T08:12:24;4.20;;;3.13;;
8556;SDS011;4316;53.840;10.762;2023-02-28T08:14:50;5.17;;;3.23;;
8556;SDS011;4316;53.840;10.762;2023-02-28T08:17:16;5.07;;;3.30;;
8556;SDS011;4316;53.840;10.762;2023-02-28T08:19:42;4.30;;;2.70;;
8556;SDS011;4316;53.840;10.762;2023-02-28T08:22:11;5.70;;;3.50;;
8556;SDS011;4316;53.840;10.762;2023-02-28T08:24:36;6.17;;;3.50;;
8556;SDS011;4316;53.840;10.762;2023-02-28T08:27:02;3.73;;;3.13;;
8556;SDS011;4316;53.840;10.762;2023-02-28T08:29:28;5.67;;;2.70;;
8556;SDS011;4316;53.840;10.762;2023-02-28T08:31:55;6.73;;;3.50;;
8556;SDS011;4316;53.840;10.762;2023-02-28T08:34:22;8.43;;;3.90;;
8556;SDS011;4316;53.840;10.762;2023-02-28T08:36:50;6.80;;;3.93;;
8556;SDS011;4316;53.840;10.762;2023-02-28T08:39:19;12.43;;;5.10;;
8556;SDS011;4316;53.840;10.762;2023-02-28T08:41:45;11.10;;;5.47;;
8556;SDS011;4316;53.840;10.762;2023-02-28T08:44:10;6.83;;;4.73;;
8556;SDS011;4316;53.840;10.762;2023-02-28T08:46:36;12.93;;;6.20;;
8556;SDS011;4316;53.840;10.762;2023-02-28T08:49:03;15.23;;;5.83;;
8556;SDS011;4316;53.840;10.762;2023-02-28T08:51:29;14.03;;;6.80;;
8556;SDS011;4316;53.840;10.762;2023-02-28T08:53:57;13.00;;;6.23;;
8556;SDS011;4316;53.840;10.762;2023-02-28T08:56:25;4.30;;;3.07;;
8556;SDS011;4316;53.840;10.762;2023-02-28T08:58:51;14.80;;;3.40;;
8556;SDS011;4316;53.840;10.762;2023-02-28T09:01:21;5.70;;;3.63;;
8556;SDS011;4316;53.840;10.762;2023-02-28T09:03:49;4.60;;;3.27;;
8556;SDS011;4316;53.840;10.762;2023-02-28T09:06:16;5.47;;;3.10;;
8556;SDS011;4316;53.840;10.762;2023-02-28T09:08:44;6.00;;;3.00;;
8556;SDS011;4316;53.840;10.762;2023-02-28T09:11:10;4.90;;;3.17;;
8556;SDS011;4316;53.840;10.762;2023-02-28T09:13:36;6.40;;;2.80;;
8556;SDS011;4316;53.840;10.762;2023-02-28T09:16:03;3.67;;;3.20;;
8556;SDS011;4316;53.840;10.762;2023-02-28T09:18:30;3.10;;;2.70;;
8556;SDS011;4316;53.840;10.762;2023-02-28T09:20:56;4.03;;;2.63;;
8556;SDS011;4316;53.840;10.762;2023-02-28T09:23:23;6.03;;;2.70;;
8556;SDS011;4316;53.840;10.762;2023-02-28T09:25:53;4.60;;;2.97;;
8556;SDS011;4316;53.840;10.762;2023-02-28T09:28:20;5.70;;;3.27;;
8556;SDS011;4316;53.840;10.762;2023-02-28T09:30:47;8.47;;;3.10;;
8556;SDS011;4316;53.840;10.762;2023-02-28T09:33:15;5.80;;;2.53;;
8556;SDS011;4316;53.840;10.762;2023-02-28T09:35:43;5.97;;;3.20;;
8556;SDS011;4316;53.840;10.762;2023-02-28T09:38:09;5.33;;;3.00;;
8556;SDS011;4316;53.840;10.762;2023-02-28T09:40:37;8.10;;;3.20;;
8556;SDS011;4316;53.840;10.762;2023-02-28T09:43:15;6.17;;;3.07;;
8556;SDS011;4316;53.840;10.762;2023-02-28T09:45:43;7.87;;;2.80;;
8556;SDS011;4316;53.840;10.762;2023-02-28T09:48:19;4.30;;;2.80;;
8556;SDS011;4316;53.840;10.762;2023-02-28T09:51:00;5.00;;;2.77;;
8556;SDS011;4316;53.840;10.762;2023-02-28T09:53:30;3.87;;;2.53;;
8556;SDS011;4316;53.840;10.762;2023-02-28T09:56:09;7.13;;;3.00;;
8556;SDS011;4316;53.840;10.762;2023-02-28T10:07:14;4.10;;;2.93;;
8556;SDS011;4316;53.840;10.762;2023-02-28T10:10:02;5.93;;;3.30;;
8556;SDS011;4316;53.840;10.762;2023-02-28T10:12:31;6.43;;;3.60;;
8556;SDS011;4316;53.840;10.762;2023-02-28T10:14:57;6.33;;;2.90;;
8556;SDS011;4316;53.840;10.762;2023-02-28T10:17:29;4.23;;;2.97;;
8556;SDS011;4316;53.840;10.762;2023-02-28T10:20:10;4.03;;;2.90;;
8556;SDS011;4316;53.840;10.762;2023-02-28T10:25:20;4.87;;;3.17;;
8556;SDS011;4316;53.840;10.762;2023-02-28T10:27:49;5.37;;;3.13;;
8556;SDS011;4316;53.840;10.762;2023-02-28T10:30:18;4.73;;;2.80;;
8556;SDS011;4316;53.840;10.762;2023-02-28T10:32:49;5.30;;;2.70;;
8556;SDS011;4316;53.840;10.762;2023-02-28T10:35:22;4.50;;;2.63;;
8556;SDS011;4316;53.840;10.762;2023-02-28T10:37:51;4.77;;;2.63;;
8556;SDS011;4316;53.840;10.762;2023-02-28T10:42:55;3.63;;;2.30;;
8556;SDS011;4316;53.840;10.762;2023-02-28T10:45:23;4.00;;;2.77;;
8556;SDS011;4316;53.840;10.762;2023-02-28T10:59:20;4.73;;;2.40;;
8556;SDS011;4316;53.840;10.762;2023-02-28T11:07:01;2.70;;;2.00;;
8556;SDS011;4316;53.840;10.762;2023-02-28T11:12:00;4.87;;;2.43;;
8556;SDS011;4316;53.840;10.762;2023-02-28T11:14:28;3.87;;;2.20;;
8556;SDS011;4316;53.840;10.762;2023-02-28T11:17:02;2.50;;;2.27;;
8556;SDS011;4316;53.840;10.762;2023-02-28T11:19:59;3.87;;;2.20;;
8556;SDS011;4316;53.840;10.762;2023-02-28T11:22:33;2.80;;;2.00;;
8556;SDS011;4316;53.840;10.762;2023-02-28T11:25:07;3.80;;;2.13;;
8556;SDS011;4316;53.840;10.762;2023-02-28T11:27:48;3.07;;;2.03;;
8556;SDS011;4316;53.840;10.762;2023-02-28T11:30:29;4.47;;;2.20;;
8556;SDS011;4316;53.840;10.762;2023-02-28T11:35:48;3.57;;;2.20;;
8556;SDS011;4316;53.840;10.762;2023-02-28T11:38:16;7.57;;;2.50;;
8556;SDS011;4316;53.840;10.762;2023-02-28T11:48:22;3.07;;;2.20;;
8556;SDS011;4316;53.840;10.762;2023-02-28T11:51:22;4.83;;;2.50;;
8556;SDS011;4316;53.840;10.762;2023-02-28T12:07:24;1.63;;;1.53;;
8556;SDS011;4316;53.840;10.762;2023-02-28T12:18:15;4.10;;;2.03;;
8556;SDS011;4316;53.840;10.762;2023-02-28T12:21:34;3.67;;;2.27;;
8556;SDS011;4316;53.840;10.762;2023-02-28T12:24:00;2.97;;;1.80;;
8556;SDS011;4316;53.840;10.762;2023-02-28T12:26:38;3.13;;;2.07;;
8556;SDS011;4316;53.840;10.762;2023-02-28T12:29:12;4.53;;;2.00;;
8556;SDS011;4316;53.840;10.762;2023-02-28T12:32:05;5.03;;;2.00;;
8556;SDS011;4316;53.840;10.762;2023-02-28T12:34:54;3.57;;;1.70;;
8556;SDS011;4316;53.840;10.762;2023-02-28T12:37:31;2.07;;;1.87;;
8556;SDS011;4316;53.840;10.762;2023-02-28T12:40:19;1.63;;;1.53;;
8556;SDS011;4316;53.840;10.762;2023-02-28T12:42:52;3.80;;;1.70;;
8556;SDS011;4316;53.840;10.762;2023-02-28T12:45:26;3.13;;;1.97;;
8556;SDS011;4316;53.840;10.762;2023-02-28T12:48:28;2.00;;;1.40;;
8556;SDS011;4316;53.840;10.762;2023-02-28T12:51:04;5.77;;;2.00;;
8556;SDS011;4316;53.840;10.762;2023-02-28T12:54:16;2.90;;;1.43;;
8556;SDS011;4316;53.840;10.762;2023-02-28T12:59:48;6.10;;;1.60;;
8556;SDS011;4316;53.840;10.762;2023-02-28T13:05:32;3.13;;;1.97;;
8556;SDS011;4316;53.840;10.762;2023-02-28T13:11:02;4.67;;;1.73;;
8556;SDS011;4316;53.840;10.762;2023-02-28T13:13:29;4.57;;;2.07;;
8556;SDS011;4316;53.840;10.762;2023-02-28T13:15:56;3.43;;;1.80;;
8556;SDS011;4316;53.840;10.762;2023-02-28T13:19:07;2.57;;;1.83;;
8556;SDS011;4316;53.840;10.762;2023-02-28T13:21:22;4.70;;;2.10;;
8556;SDS011;4316;53.840;10.762;2023-02-28T13:34:34;6.33;;;1.93;;
8556;SDS011;4316;53.840;10.762;2023-02-28T13:45:32;3.53;;;2.20;;
8556;SDS011;4316;53.840;10.762;2023-02-28T14:04:06;1.73;;;1.63;;
8556;SDS011;4316;53.840;10.762;2023-02-28T14:06:38;4.27;;;1.77;;
8556;SDS011;4316;53.840;10.762;2023-02-28T14:11:43;7.83;;;1.57;;
8556;SDS011;4316;53.840;10.762;2023-02-28T14:17:01;3.93;;;1.90;;
8556;SDS011;4316;53.840;10.762;2023-02-28T14:19:30;2.57;;;2.00;;
8556;SDS011;4316;53.840;10.762;2023-02-28T14:24:42;1.90;;;1.30;;
8556;SDS011;4316;53.840;10.762;2023-02-28T14:30:18;1.97;;;1.20;;
8556;SDS011;4316;53.840;10.762;2023-02-28T14:38:21;1.20;;;1.10;;
8556;SDS011;4316;53.840;10.762;2023-02-28T14:40:52;4.27;;;1.67;;
8556;SDS011;4316;53.840;10.762;2023-02-28T14:43:20;2.77;;;1.70;;
8556;SDS011;4316;53.840;10.762;2023-02-28T14:45:53;2.20;;;1.60;;
8556;SDS011;4316;53.840;10.762;2023-02-28T14:48:24;7.23;;;1.80;;
8556;SDS011;4316;53.840;10.762;2023-02-28T14:50:56;5.63;;;1.90;;
8556;SDS011;4316;53.840;10.762;2023-02-28T14:53:25;2.17;;;1.87;;
8556;SDS011;4316;53.840;10.762;2023-02-28T14:55:53;7.20;;;3.20;;
8556;SDS011;4316;53.840;10.762;2023-02-28T14:58:26;3.93;;;2.17;;
8556;SDS011;4316;53.840;10.762;2023-02-28T15:00:55;8.37;;;4.07;;
8556;SDS011;4316;53.840;10.762;2023-02-28T15:03:30;10.30;;;3.23;;
8556;SDS011;4316;53.840;10.762;2023-02-28T15:06:04;3.33;;;2.17;;
8556;SDS011;4316;53.840;10.762;2023-02-28T15:08:37;5.33;;;2.40;;
8556;SDS011;4316;53.840;10.762;2023-02-28T15:13:47;4.33;;;2.13;;
8556;SDS011;4316;53.840;10.762;2023-02-28T15:16:16;3.60;;;1.70;;
8556;SDS011;4316;53.840;10.762;2023-02-28T15:21:15;3.30;;;1.63;;
8556;SDS011;4316;53.840;10.762;2023-02-28T15:23:48;4.00;;;1.50;;
8556;SDS011;4316;53.840;10.762;2023-02-28T15:26:19;3.30;;;1.87;;
8556;SDS011;4316;53.840;10.762;2023-02-28T15:28:51;3.63;;;1.67;;
8556;SDS011;4316;53.840;10.762;2023-02-28T15:31:29;3.47;;;1.63;;
8556;SDS011;4316;53.840;10.762;2023-02-28T15:33:58;6.77;;;2.10;;
8556;SDS011;4316;53.840;10.762;2023-02-28T15:36:30;3.23;;;2.13;;
8556;SDS011;4316;53.840;10.762;2023-02-28T15:38:58;3.87;;;2.03;;
8556;SDS011;4316;53.840;10.762;2023-02-28T15:41:35;5.63;;;2.00;;
8556;SDS011;4316;53.840;10.762;2023-02-28T15:44:16;4.40;;;1.80;;
8556;SDS011;4316;53.840;10.762;2023-02-28T15:47:11;5.27;;;2.00;;
8556;SDS011;4316;53.840;10.762;2023-02-28T15:52:17;2.17;;;1.67;;
8556;SDS011;4316;53.840;10.762;2023-02-28T15:54:45;3.17;;;1.50;;
8556;SDS011;4316;53.840;10.762;2023-02-28T15:57:18;3.43;;;1.80;;
8556;SDS011;4316;53.840;10.762;2023-02-28T15:59:54;4.47;;;1.67;;
8556;SDS011;4316;53.840;10.762;2023-02-28T16:02:31;1.60;;;1.50;;
8556;SDS011;4316;53.840;10.762;2023-02-28T16:07:31;5.50;;;1.57;;
8556;SDS011;4316;53.840;10.762;2023-02-28T16:09:59;3.23;;;1.47;;
8556;SDS011;4316;53.840;10.762;2023-02-28T16:12:34;1.77;;;1.63;;
8556;SDS011;4316;53.840;10.762;2023-02-28T16:15:03;2.43;;;1.67;;
8556;SDS011;4316;53.840;10.762;2023-02-28T16:17:52;5.27;;;1.90;;
8556;SDS011;4316;53.840;10.762;2023-02-28T16:20:23;9.70;;;2.07;;
8556;SDS011;4316;53.840;10.762;2023-02-28T16:22:49;10.73;;;2.83;;
8556;SDS011;4316;53.840;10.762;2023-02-28T16:25:17;9.90;;;4.30;;
8556;SDS011;4316;53.840;10.762;2023-02-28T16:27:45;14.47;;;4.63;;
8556;SDS011;4316;53.840;10.762;2023-02-28T16:30:19;13.33;;;6.40;;
8556;SDS011;4316;53.840;10.762;2023-02-28T16:32:47;9.47;;;3.90;;
8556;SDS011;4316;53.840;10.762;2023-02-28T16:35:14;5.53;;;3.37;;
8556;SDS011;4316;53.840;10.762;2023-02-28T16:37:40;10.73;;;2.10;;
8556;SDS011;4316;53.840;10.762;2023-02-28T16:40:08;2.73;;;1.73;;
8556;SDS011;4316;53.840;10.762;2023-02-28T16:42:46;2.30;;;1.57;;
8556;SDS011;4316;53.840;10.762;2023-02-28T16:45:16;1.93;;;1.73;;
8556;SDS011;4316;53.840;10.762;2023-02-28T16:47:47;7.07;;;1.90;;
8556;SDS011;4316;53.840;10.762;2023-02-28T16:50:14;4.43;;;2.20;;
8556;SDS011;4316;53.840;10.762;2023-02-28T16:52:43;13.23;;;4.70;;
8556;SDS011;4316;53.840;10.762;2023-02-28T16:55:09;7.97;;;5.20;;
8556;SDS011;4316;53.840;10.762;2023-02-28T16:57:35;15.23;;;8.10;;
8556;SDS011;4316;53.840;10.762;2023-02-28T17:00:02;7.20;;;3.30;;
8556;SDS011;4316;53.840;10.762;2023-02-28T17:02:29;5.70;;;3.27;;
8556;SDS011;4316;53.840;10.762;2023-02-28T17:04:55;4.60;;;2.93;;
8556;SDS011;4316;53.840;10.762;2023-02-28T17:07:20;7.37;;;3.43;;
8556;SDS011;4316;53.840;10.762;2023-02-28T17:09:46;4.97;;;4.10;;
8556;SDS011;4316;53.840;10.762;2023-02-28T17:12:12;11.03;;;4.03;;
8556;SDS011;4316;53.840;10.762;2023-02-28T17:14:39;7.40;;;3.90;;
8556;SDS011;4316;53.840;10.762;2023-02-28T17:17:06;7.83;;;4.30;;
8556;SDS011;4316;53.840;10.762;2023-02-28T17:19:32;5.97;;;4.10;;
8556;SDS011;4316;53.840;10.762;2023-02-28T17:21:59;16.43;;;10.90;;
8556;SDS011;4316;53.840;10.762;2023-02-28T17:24:25;10.50;;;5.63;;
8556;SDS011;4316;53.840;10.762;2023-02-28T17:26:51;8.80;;;5.03;;
8556;SDS011;4316;53.840;10.762;2023-02-28T17:29:20;6.87;;;4.90;;
8556;SDS011;4316;53.840;10.762;2023-02-28T17:31:47;7.60;;;5.30;;
8556;SDS011;4316;53.840;10.762;2023-02-28T17:34:13;9.80;;;5.00;;
8556;SDS011;4316;53.840;10.762;2023-02-28T17:36:43;8.17;;;5.10;;
8556;SDS011;4316;53.840;10.762;2023-02-28T17:39:11;6.50;;;4.77;;
8556;SDS011;4316;53.840;10.762;2023-02-28T17:41:39;7.50;;;5.10;;
8556;SDS011;4316;53.840;10.762;2023-02-28T17:44:07;10.07;;;6.07;;
8556;SDS011;4316;53.840;10.762;2023-02-28T17:46:33;11.50;;;6.30;;
8556;SDS011;4316;53.840;10.762;2023-02-28T17:48:59;13.37;;;6.87;;
8556;SDS011;4316;53.840;10.762;2023-02-28T17:51:25;20.60;;;11.40;;
8556;SDS011;4316;53.840;10.762;2023-02-28T17:53:51;26.50;;;10.00;;
8556;SDS011;4316;53.840;10.762;2023-02-28T17:56:24;23.27;;;8.50;;
8556;SDS011;4316;53.840;10.762;2023-02-28T17:58:51;16.27;;;6.50;;
8556;SDS011;4316;53.840;10.762;2023-02-28T18:01:18;12.87;;;6.40;;
8556;SDS011;4316;53.840;10.762;2023-02-28T18:03:45;20.77;;;5.47;;
8556;SDS011;4316;53.840;10.762;2023-02-28T18:08:46;7.47;;;4.83;;
8556;SDS011;4316;53.840;10.762;2023-02-28T18:11:11;6.43;;;4.40;;
8556;SDS011;4316;53.840;10.762;2023-02-28T18:13:42;5.50;;;4.27;;
8556;SDS011;4316;53.840;10.762;2023-02-28T18:16:18;5.13;;;3.83;;
8556;SDS011;4316;53.840;10.762;2023-02-28T18:18:44;7.50;;;4.20;;